Time;durP1;ratioP1;P1;durP2;ratioP2;P2;SDS_P1;SDS_P2;PMS_P1;PMS_P2;Temp;Humidity;BMP_temperature;BMP_pressure;BME280_temperature;BME280_humidity;BME280_pressure;Samples;Min_cycle;Max_cycle;Signal;HPM_P1;HPM_P2
2021/04/21 04:53:12;;;;;;;8.15;7.00;;;;;;;6.21;98.83;99514.45;1843571;77;22633;-66
2021/04/21 04:55:43;;;;;;;8.38;7.53;;;;;;;6.19;98.50;99517.11;1812688;79;21439;-59
2021/04/21 04:58:11;;;;;;;7.50;6.80;;;;;;;6.24;97.81;99515.15;1812629;77;21862;-62
2021/04/21 05:00:44;;;;;;;8.60;6.67;;;;;;;6.29;97.36;99521.41;1783856;79;21570;-68
2021/04/21 05:03:27;;;;;;;7.37;6.50;;;;;;;6.33;96.76;99521.19;1798312;79;21490;-59
2021/04/21 05:05:56;;;;;;;9.27;7.20;;;;;;;6.40;96.17;99525.59;1780944;79;20968;-64
2021/04/21 05:08:51;;;;;;;9.13;6.92;;;;;;;6.45;95.45;99521.50;1780522;80;21753;-61
2021/04/21 05:11:22;;;;;;;6.72;6.10;;;;;;;6.51;95.42;99526.38;1793653;79;22252;-62
2021/04/21 05:13:52;;;;;;;9.60;5.70;;;;;;;6.55;95.14;99527.46;1790624;79;20913;-62
2021/04/21 05:17:00;;;;;;;7.22;5.97;;;;;;;6.58;94.55;99529.90;1798744;79;20893;-64
2021/04/21 05:19:43;;;;;;;7.00;6.30;;;;;;;6.61;94.35;99532.80;1798062;79;21624;-62
2021/04/21 05:22:50;;;;;;;6.92;6.30;;;;;;;6.64;94.33;99539.13;1796361;79;21471;-66
2021/04/21 05:25:52;;;;;;;;;;;;;;;6.66;94.17;99543.31;1800209;79;22081;-67
2021/04/21 05:29:18;;;;;;;6.42;5.83;;;;;;;6.73;94.03;99545.61;1803137;79;20201;-64
2021/04/21 05:32:47;;;;;;;6.65;5.95;;;;;;;6.78;93.93;99548.36;1790218;79;20932;-68
2021/04/21 05:36:13;;;;;;;5.53;5.03;;;;;;;6.84;93.68;99545.45;1812833;79;20925;-61
2021/04/21 05:39:15;;;;;;;5.25;4.83;;;;;;;6.88;93.16;99551.31;1759031;81;20958;-63
2021/04/21 05:42:04;;;;;;;5.60;5.10;;;;;;;6.91;92.64;99555.05;1733281;81;21355;-62
2021/04/21 05:45:16;;;;;;;6.05;5.50;;;;;;;6.93;92.32;99555.36;1727856;83;21646;-64
2021/04/21 05:48:22;;;;;;;5.47;4.97;;;;;;;6.98;92.01;99556.43;1727896;83;21595;-67
2021/04/21 05:51:31;;;;;;;9.85;6.40;;;;;;;6.99;91.87;99558.95;1743463;81;21534;-68
2021/04/21 05:54:44;;;;;;;7.10;6.17;;;;;;;7.00;91.98;99563.67;1746305;81;21503;-67
2021/04/21 05:57:45;;;;;;;6.17;5.58;;;;;;;6.99;91.92;99566.71;1753649;81;23440;-67
2021/04/21 06:00:48;;;;;;;6.53;5.25;;;;;;;6.97;91.96;99568.54;1736334;81;21602;-67
2021/04/21 06:03:16;;;;;;;4.87;4.47;;;;;;;6.95;92.08;99570.36;1753709;81;21456;-65
2021/04/21 06:05:45;;;;;;;4.97;4.58;;;;;;;6.95;91.91;99577.28;1757495;81;21004;-60
2021/04/21 06:08:14;;;;;;;6.08;5.15;;;;;;;6.96;91.95;99576.38;1757536;81;21610;-60
2021/04/21 06:10:44;;;;;;;5.05;4.62;;;;;;;6.96;92.02;99574.63;1743518;81;21195;-61
2021/04/21 06:13:12;;;;;;;9.55;6.72;;;;;;;6.98;91.97;99584.91;1754566;81;21504;-66
2021/04/21 06:15:42;;;;;;;8.50;7.30;;;;;;;6.99;91.77;99579.66;1739494;81;21134;-61
2021/04/21 06:18:11;;;;;;;7.70;6.55;;;;;;;7.01;91.65;99582.17;1736856;81;21511;-63
2021/04/21 06:20:44;;;;;;;10.90;9.05;;;;;;;7.03;91.58;99582.94;1745928;81;20906;-60
2021/04/21 06:23:26;;;;;;;12.68;10.68;;;;;;;7.07;91.55;99586.22;1746617;81;22251;-64
2021/04/21 06:26:02;;;;;;;15.28;11.40;;;;;;;7.10;91.80;99587.36;1728380;81;21598;-67
2021/04/21 06:28:30;;;;;;;10.08;8.70;;;;;;;7.12;91.77;99588.96;1752727;81;21476;-65
2021/04/21 06:31:07;;;;;;;9.25;8.35;;;;;;;7.15;91.87;99600.47;1739120;81;21761;-62
2021/04/21 06:33:37;;;;;;;9.83;8.65;;;;;;;7.18;91.80;99591.25;1737200;80;21005;-61
2021/04/21 06:36:08;;;;;;;9.88;7.60;;;;;;;7.20;91.67;99599.75;1735972;81;22442;-65
2021/04/21 06:38:38;;;;;;;9.48;7.55;;;;;;;7.22;91.76;99596.63;1739202;81;21599;-67
2021/04/21 06:41:08;;;;;;;10.03;7.40;;;;;;;7.25;91.82;99597.78;1741931;80;21057;-59
2021/04/21 06:43:38;;;;;;;8.18;7.40;;;;;;;7.28;91.53;99604.56;1739588;81;22154;-59
2021/04/21 06:46:10;;;;;;;8.20;7.40;;;;;;;7.32;91.70;99600.91;1742908;81;21073;-62
2021/04/21 06:48:41;;;;;;;6.67;6.08;;;;;;;7.37;91.49;99608.00;1745441;81;21200;-65
2021/04/21 06:51:15;;;;;;;5.90;5.30;;;;;;;7.42;91.26;99611.20;1735851;81;20942;-70
2021/04/21 06:53:45;;;;;;;8.70;7.22;;;;;;;7.46;91.18;99607.55;1733102;81;20990;-68
2021/04/21 06:56:14;;;;;;;6.85;6.15;;;;;;;7.51;90.93;99621.56;1747837;82;20952;-64
2021/04/21 06:58:43;;;;;;;7.37;6.55;;;;;;;7.53;90.79;99614.09;1770424;79;21035;-65
2021/04/21 07:01:15;;;;;;;7.60;6.78;;;;;;;7.55;90.65;99620.05;1769923;81;21364;-70
2021/04/21 07:03:44;;;;;;;8.95;7.17;;;;;;;7.56;90.67;99626.91;1774501;79;21591;-72
2021/04/21 07:06:14;;;;;;;6.90;6.20;;;;;;;7.58;90.64;99625.53;1782004;79;21539;-61
2021/04/21 07:08:43;;;;;;;8.73;6.95;;;;;;;7.59;90.47;99633.23;1792037;79;20977;-61
2021/04/21 07:11:13;;;;;;;7.12;6.50;;;;;;;7.62;90.36;99633.05;1781775;79;21009;-65
2021/04/21 07:13:49;;;;;;;7.50;6.78;;;;;;;7.65;90.13;99631.59;1700710;83;21354;-61
2021/04/21 07:16:27;;;;;;;10.65;7.92;;;;;;;7.69;90.16;99633.13;1794358;79;21071;-61
2021/04/21 07:19:08;;;;;;;8.53;7.62;;;;;;;7.75;90.17;99633.27;1797650;79;20981;-60
2021/04/21 07:21:39;;;;;;;9.45;7.60;;;;;;;7.80;89.77;99635.17;1784010;79;21599;-67
2021/04/21 07:24:11;;;;;;;9.65;7.17;;;;;;;7.82;89.54;99635.94;1779481;79;21353;-62
2021/04/21 07:26:41;;;;;;;7.65;6.85;;;;;;;7.87;89.44;99639.12;1797105;79;21357;-62
2021/04/21 07:29:18;;;;;;;7.60;6.80;;;;;;;7.92;89.18;99641.48;1774540;79;20953;-68
2021/04/21 07:31:48;;;;;;;9.08;7.40;;;;;;;7.95;88.86;99647.36;1762023;79;21044;-59
2021/04/21 07:34:33;;;;;;;8.93;7.97;;;;;;;7.97;88.21;99648.58;1776890;79;21515;-61
2021/04/21 07:37:02;;;;;;;12.00;8.15;;;;;;;7.99;88.32;99650.63;1774475;79;20945;-64
2021/04/21 07:39:42;;;;;;;7.87;7.10;;;;;;;7.98;88.64;99647.20;1700871;83;21362;-59
2021/04/21 07:42:17;;;;;;;9.30;8.33;;;;;;;8.03;88.90;99662.03;1780891;79;21578;-64
2021/04/21 07:44:50;;;;;;;7.37;6.67;;;;;;;8.07;89.00;99661.42;1800502;79;21013;-60
2021/04/21 07:47:20;;;;;;;11.08;7.87;;;;;;;8.09;88.82;99661.34;1801033;79;21048;-62
2021/04/21 07:52:32;;;;;;;7.70;6.90;;;;;;;8.13;88.71;99668.89;1827732;76;22338;-63
2021/04/21 07:55:22;;;;;;;7.97;7.05;;;;;;;8.09;89.06;99670.42;1804995;79;21474;-60
2021/04/21 07:58:03;;;;;;;7.60;6.90;;;;;;;8.07;88.89;99670.95;1754325;81;22175;-61
2021/04/21 08:00:34;;;;;;;8.18;6.85;;;;;;;8.02;88.99;99682.40;1732695;81;21056;-60
2021/04/21 08:03:02;;;;;;;7.80;6.83;;;;;;;8.01;88.91;99685.91;1742614;81;21543;-63
2021/04/21 08:05:31;;;;;;;7.78;6.95;;;;;;;8.00;88.72;99684.69;1744119;80;21621;-60
2021/04/21 08:08:02;;;;;;;8.18;7.37;;;;;;;8.02;88.70;99682.86;1747395;80;20956;-65
2021/04/21 08:10:34;;;;;;;9.35;7.10;;;;;;;8.05;88.83;99690.48;1735769;80;21199;-65
2021/04/21 08:13:04;;;;;;;18.77;16.07;;;;;;;8.11;88.55;99693.22;1727988;83;21400;-59
2021/04/21 08:15:39;;;;;;;11.60;8.55;;;;;;;8.16;88.31;99689.94;1729896;81;21361;-63
2021/04/21 08:18:13;;;;;;;15.03;12.67;;;;;;;8.22;88.19;99691.76;1728076;83;21033;-60
2021/04/21 08:20:53;;;;;;;11.85;9.03;;;;;;;8.29;87.90;99696.17;1727838;83;21483;-60
2021/04/21 08:23:23;;;;;;;16.35;10.78;;;;;;;8.33;87.82;99694.67;1734116;81;21139;-63
2021/04/21 08:25:53;;;;;;;16.97;11.48;;;;;;;8.39;87.67;99697.87;1729562;82;21602;-61
2021/04/21 08:28:22;;;;;;;13.95;10.30;;;;;;;8.42;87.08;99699.81;1713675;83;21471;-61
2021/04/21 08:30:56;;;;;;;10.55;7.10;;;;;;;8.44;87.11;99697.98;1727713;83;21492;-59
2021/04/21 08:33:24;;;;;;;9.45;7.20;;;;;;;8.49;86.67;99702.92;1747933;81;20985;-60
2021/04/21 08:35:53;;;;;;;9.75;7.65;;;;;;;8.51;86.22;99703.22;1752330;81;21234;-60
2021/04/21 08:38:21;;;;;;;10.98;8.83;;;;;;;8.56;86.62;99707.72;1738588;80;21562;-60
2021/04/21 08:40:50;;;;;;;12.53;10.70;;;;;;;8.63;86.80;99703.87;1752373;81;21630;-69
2021/04/21 08:43:20;;;;;;;9.23;7.42;;;;;;;8.70;86.30;99703.09;1757620;81;20946;-64
2021/04/21 08:45:50;;;;;;;7.25;6.33;;;;;;;8.77;85.96;99704.45;1746513;81;21479;-59
2021/04/21 08:48:18;;;;;;;7.05;6.33;;;;;;;8.82;85.08;99705.47;1740264;81;22115;-61
2021/04/21 08:50:47;;;;;;;17.62;13.05;;;;;;;8.85;84.68;99706.60;1735270;81;21690;-67
2021/04/21 08:53:18;;;;;;;7.42;6.70;;;;;;;8.85;84.48;99706.60;1718091;82;21606;-63
2021/04/21 08:55:46;;;;;;;8.78;6.80;;;;;;;8.85;84.13;99715.23;1731226;82;21587;-68
2021/04/21 08:58:16;;;;;;;7.15;6.45;;;;;;;8.85;84.00;99711.33;1689172;83;21547;-62
2021/04/21 09:00:46;;;;;;;6.80;6.08;;;;;;;8.84;83.94;99710.95;1743477;81;21602;-68
2021/04/21 09:03:16;;;;;;;7.58;6.17;;;;;;;8.83;83.50;99714.47;1758279;81;21623;-64
2021/04/21 09:05:48;;;;;;;7.53;6.72;;;;;;;8.81;83.38;99709.82;1753549;80;21122;-65
2021/04/21 09:08:31;;;;;;;7.60;6.53;;;;;;;8.86;83.54;99714.77;1747935;81;21053;-70
2021/04/21 09:11:29;;;;;;;7.05;6.45;;;;;;;8.91;83.25;99717.50;1736331;81;21043;-61
2021/04/21 09:14:22;;;;;;;7.00;6.30;;;;;;;8.99;83.08;99719.22;1736984;81;21607;-66
2021/04/21 09:17:05;;;;;;;8.05;7.25;;;;;;;9.11;82.73;99716.88;1739138;81;21595;-61
2021/04/21 09:19:43;;;;;;;7.92;6.53;;;;;;;9.18;81.90;99724.26;1759174;81;20997;-63
2021/04/21 09:22:17;;;;;;;9.53;6.50;;;;;;;9.25;81.95;99716.47;1760110;81;20955;-61
2021/04/21 09:25:10;;;;;;;9.83;6.10;;;;;;;9.34;80.95;99722.46;1757389;81;21036;-61
2021/04/21 09:28:02;;;;;;;7.97;6.50;;;;;;;9.40;80.33;99728.23;1727018;81;21221;-65
2021/04/21 09:30:56;;;;;;;7.85;6.87;;;;;;;9.42;79.55;99728.99;1757105;81;21001;-61
2021/04/21 09:33:48;;;;;;;12.55;9.98;;;;;;;9.42;79.46;99730.30;1735446;81;21026;-72
2021/04/21 09:36:38;;;;;;;11.18;9.35;;;;;;;9.42;80.29;99735.49;1761096;81;20997;-60
2021/04/21 09:39:27;;;;;;;17.35;11.60;;;;;;;9.41;80.51;99733.81;1760922;81;20962;-62
2021/04/21 09:42:09;;;;;;;15.25;10.88;;;;;;;9.38;80.91;99736.13;1735816;81;22309;-62
2021/04/21 09:45:12;;;;;;;11.00;9.03;;;;;;;9.38;80.98;99738.72;1703981;83;21044;-62
2021/04/21 09:48:10;;;;;;;11.83;8.23;;;;;;;9.42;80.87;99741.98;1738213;81;21006;-60
2021/04/21 09:50:53;;;;;;;12.47;8.25;;;;;;;9.44;80.43;99745.34;1727656;81;21360;-61
2021/04/21 09:53:48;;;;;;;12.68;8.85;;;;;;;9.44;80.32;99742.74;1730085;82;20945;-61
2021/04/21 09:56:27;;;;;;;10.55;7.95;;;;;;;9.43;79.83;99749.70;1730782;81;21373;-60
2021/04/21 09:59:14;;;;;;;;;;;;;;;;;;;;;
2021/04/21 10:01:37;;;;;;;10.18;7.12;;;;;;;9.46;80.18;99748.69;1724436;81;21082;-61
2021/04/21 10:04:25;;;;;;;7.42;6.62;;;;;;;9.54;80.49;99751.24;1710556;81;21170;-62
2021/04/21 10:07:21;;;;;;;8.70;7.42;;;;;;;9.62;78.86;99745.58;1736256;81;21033;-65
2021/04/21 10:10:09;;;;;;;7.62;6.28;;;;;;;9.69;80.15;99745.16;1760309;81;21269;-63
2021/04/21 10:12:57;;;;;;;7.53;6.30;;;;;;;9.99;79.10;99746.94;1727265;82;21004;-60
2021/04/21 10:15:48;;;;;;;11.55;8.10;;;;;;;10.28;77.92;99754.34;1728993;83;21645;-60
2021/04/21 10:18:41;;;;;;;9.08;7.25;;;;;;;10.38;76.39;99746.38;1727051;83;21068;-61
2021/04/21 10:21:21;;;;;;;9.38;7.70;;;;;;;10.39;76.37;99748.05;1729703;83;21020;-64
2021/04/21 10:24:04;;;;;;;8.50;7.53;;;;;;;10.43;76.55;99749.52;1702957;83;21199;-60
2021/04/21 10:26:45;;;;;;;12.10;8.48;;;;;;;10.43;76.51;99752.58;1708772;83;20914;-65
2021/04/21 10:30:08;;;;;;;8.63;7.17;;;;;;;10.45;76.65;99753.33;1723980;82;21014;-66
2021/04/21 10:33:00;;;;;;;7.05;6.37;;;;;;;10.68;75.85;99735.39;1809158;77;25125;-61
2021/04/21 10:35:56;;;;;;;7.55;6.75;;;;;;;10.84;75.28;99740.94;1750173;80;21040;-66
2021/04/21 10:38:48;;;;;;;6.97;6.28;;;;;;;11.17;74.95;99741.47;1793118;79;20983;-62
2021/04/21 10:41:31;;;;;;;7.60;6.80;;;;;;;11.49;73.72;99743.78;1742810;80;21071;-62
2021/04/21 10:44:19;;;;;;;6.30;5.70;;;;;;;11.75;73.31;99747.28;1762404;80;21589;-60
2021/04/21 10:47:24;;;;;;;6.33;5.72;;;;;;;11.99;71.08;99751.77;1760115;81;21099;-64
2021/04/21 10:50:10;;;;;;;7.72;6.92;;;;;;;11.97;69.54;99747.13;1772711;78;21019;-65
2021/04/21 10:52:56;;;;;;;7.55;6.25;;;;;;;11.93;71.14;99748.27;1738470;81;22194;-64
2021/04/21 10:55:49;;;;;;;7.20;6.50;;;;;;;12.01;70.88;99749.03;1764017;80;21035;-67
2021/04/21 10:58:21;;;;;;;6.53;5.92;;;;;;;12.10;69.83;99746.28;1833824;77;20965;-64
2021/04/21 11:01:04;;;;;;;6.50;5.90;;;;;;;12.00;70.80;99749.50;1801916;77;20966;-66
2021/04/21 11:04:04;;;;;;;6.95;5.95;;;;;;;12.05;70.45;99747.05;1833067;77;20925;-60
2021/04/21 11:06:53;;;;;;;7.25;6.53;;;;;;;12.19;69.74;99746.98;1767315;79;20984;-61
2021/04/21 11:09:56;;;;;;;8.53;6.28;;;;;;;12.29;69.56;99749.34;1787957;79;21519;-64
2021/04/21 11:13:12;;;;;;;;;;;;;;;;;;;;;
2021/04/21 11:15:50;;;;;;;7.87;6.83;;;;;;;12.47;68.42;99747.23;1770851;79;21075;-60
2021/04/21 11:18:38;;;;;;;8.43;7.15;;;;;;;12.54;67.20;99744.10;1784411;79;20932;-62
2021/04/21 11:21:40;;;;;;;8.45;6.87;;;;;;;12.62;68.13;99749.64;1793057;79;21384;-60
2021/04/21 11:24:18;;;;;;;7.55;6.85;;;;;;;12.78;66.97;99744.67;1777042;79;20995;-59
2021/04/21 11:26:56;;;;;;;7.72;6.87;;;;;;;12.84;66.65;99747.66;1776982;79;23828;-62
2021/04/21 11:29:35;;;;;;;7.10;6.40;;;;;;;12.91;66.41;99742.84;1788210;79;21011;-61
2021/04/21 11:32:17;;;;;;;7.20;6.50;;;;;;;12.95;66.15;99739.91;1781009;79;21093;-60
2021/04/21 11:34:59;;;;;;;6.87;6.20;;;;;;;12.99;65.96;99746.59;1740828;81;21392;-63
2021/04/21 11:37:45;;;;;;;6.50;5.90;;;;;;;13.00;65.13;99742.20;1734749;81;21024;-62
2021/04/21 11:40:32;;;;;;;6.75;6.15;;;;;;;12.89;65.11;99739.03;1774360;79;21448;-64
2021/04/21 11:43:19;;;;;;;5.90;5.40;;;;;;;12.86;64.66;99747.08;1768706;79;20926;-68
2021/04/21 11:45:58;;;;;;;6.70;6.00;;;;;;;12.77;65.31;99736.47;1784668;79;21008;-68
2021/04/21 11:48:38;;;;;;;6.40;5.72;;;;;;;12.71;65.88;99744.25;1792920;79;20985;-61
2021/04/21 11:51:21;;;;;;;7.00;6.35;;;;;;;12.68;65.57;99739.24;1769482;79;21017;-59
2021/04/21 11:54:29;;;;;;;6.90;6.00;;;;;;;12.66;66.01;99743.73;1747339;81;21054;-60
2021/04/21 11:57:06;;;;;;;7.00;6.30;;;;;;;12.70;65.99;99742.59;1769839;81;20940;-69
2021/04/21 11:59:46;;;;;;;6.60;5.95;;;;;;;12.76;65.66;99743.94;1756595;79;21027;-71
2021/04/21 12:02:20;;;;;;;6.17;5.62;;;;;;;12.79;65.17;99741.11;1757079;79;21392;-67
2021/04/21 12:05:26;;;;;;;8.85;6.30;;;;;;;12.75;65.26;99740.96;1768480;79;21664;-62
2021/04/21 12:08:16;;;;;;;6.92;6.22;;;;;;;12.67;65.06;99737.09;1754003;81;21125;-67
2021/04/21 12:11:07;;;;;;;6.65;5.97;;;;;;;12.61;65.32;99739.30;1750727;80;20994;-71
2021/04/21 12:13:47;;;;;;;7.37;6.55;;;;;;;12.63;65.33;99732.19;1752240;79;21282;-65
2021/04/21 12:16:28;;;;;;;7.65;6.05;;;;;;;12.72;65.52;99733.34;1784366;78;21389;-63
2021/04/21 12:19:16;;;;;;;7.87;6.45;;;;;;;12.79;65.39;99729.36;1776950;78;21038;-62
2021/04/21 12:21:52;;;;;;;7.35;6.65;;;;;;;12.81;64.67;99733.50;1800337;79;21483;-60
2021/04/21 12:24:39;;;;;;;6.67;5.95;;;;;;;12.84;65.14;99733.29;1772582;79;21027;-62
2021/04/21 12:27:34;;;;;;;7.25;6.45;;;;;;;12.89;64.92;99723.82;1741906;79;21007;-63
2021/04/21 12:30:23;;;;;;;7.85;6.87;;;;;;;12.90;64.42;99726.33;1789838;79;21154;-58
2021/04/21 12:33:16;;;;;;;9.78;7.15;;;;;;;12.86;64.49;99722.73;1785892;78;21326;-69
2021/04/21 12:36:15;;;;;;;6.83;6.12;;;;;;;12.74;65.30;99724.92;1785592;79;20999;-70
2021/04/21 12:39:17;;;;;;;6.62;6.03;;;;;;;12.65;65.38;99723.30;1780334;79;20972;-67
2021/04/21 12:42:07;;;;;;;7.00;6.30;;;;;;;12.54;65.43;99721.91;1748510;79;21501;-66
2021/04/21 12:44:52;;;;;;;7.25;6.25;;;;;;;12.45;65.14;99721.23;1758031;81;21201;-70
2021/04/21 12:47:34;;;;;;;6.22;5.72;;;;;;;12.36;65.51;99716.66;1800496;79;21506;-67
2021/04/21 12:50:13;;;;;;;7.83;6.97;;;;;;;12.27;65.62;99712.89;1795667;79;21068;-67
2021/04/21 12:53:14;;;;;;;6.55;5.92;;;;;;;12.13;66.63;99713.45;1797092;79;21064;-66
2021/04/21 12:55:53;;;;;;;6.22;5.62;;;;;;;12.13;67.19;99714.29;1773989;79;26974;-67
2021/04/21 12:58:56;;;;;;;8.65;6.72;;;;;;;12.15;67.49;99708.50;1759603;81;21193;-62
2021/04/21 13:01:37;;;;;;;8.08;6.45;;;;;;;12.19;67.42;99726.93;1722497;82;21056;-60
2021/04/21 13:04:17;;;;;;;6.53;5.92;;;;;;;12.18;66.74;99723.95;1772504;80;21034;-60
2021/04/21 13:06:56;;;;;;;7.00;6.30;;;;;;;12.12;66.76;99719.61;1782648;79;21059;-62
2021/04/21 13:09:33;;;;;;;5.60;5.10;;;;;;;12.08;66.68;99722.06;1775495;79;21063;-64
2021/04/21 13:12:03;;;;;;;6.83;6.15;;;;;;;12.07;66.17;99717.78;1772482;81;21555;-65
2021/04/21 13:14:43;;;;;;;7.42;6.42;;;;;;;12.03;66.67;99723.20;1772525;81;21022;-68
2021/04/21 13:17:11;;;;;;;6.60;6.00;;;;;;;12.02;67.20;99713.70;1772391;79;20987;-64
2021/04/21 13:19:53;;;;;;;6.90;6.20;;;;;;;12.00;66.94;99716.88;1762662;81;21220;-62
2021/04/21 13:22:26;;;;;;;7.33;6.58;;;;;;;11.91;67.13;99711.00;1772008;80;21066;-61
2021/04/21 13:24:57;;;;;;;7.58;6.85;;;;;;;11.84;68.31;99715.41;1782114;79;21235;-62
2021/04/21 13:27:33;;;;;;;7.55;6.83;;;;;;;11.78;68.88;99717.95;1772520;81;21618;-66
2021/04/21 13:30:22;;;;;;;6.90;5.83;;;;;;;11.70;69.22;99714.98;1785330;79;21090;-61
2021/04/21 13:32:51;;;;;;;8.75;7.53;;;;;;;11.62;69.54;99710.27;1799154;78;21184;-65
2021/04/21 13:35:23;;;;;;;6.90;6.20;;;;;;;11.55;69.95;99710.80;1798921;79;20997;-62
2021/04/21 13:37:51;;;;;;;6.47;5.80;;;;;;;11.53;69.19;99704.37;1787730;79;21185;-61
2021/04/21 13:40:21;;;;;;;6.58;5.97;;;;;;;11.53;68.86;99705.67;1782189;79;21582;-64
2021/04/21 13:42:51;;;;;;;8.93;5.78;;;;;;;11.56;68.29;99700.73;1783962;78;21036;-64
2021/04/21 13:45:22;;;;;;;7.35;6.60;;;;;;;11.58;67.34;99711.43;1790779;78;21075;-60
2021/04/21 13:47:51;;;;;;;7.08;6.37;;;;;;;11.59;67.42;99707.05;1810937;78;21012;-64
2021/04/21 13:50:21;;;;;;;5.95;5.40;;;;;;;11.60;67.54;99709.52;1799172;78;21209;-61
2021/04/21 13:52:50;;;;;;;5.47;5.08;;;;;;;11.63;66.48;99709.33;1784626;79;21602;-64
2021/04/21 13:55:19;;;;;;;6.00;5.25;;;;;;;11.60;65.34;99708.22;1789130;78;20924;-62
2021/04/21 13:57:48;;;;;;;6.40;5.80;;;;;;;11.59;65.06;99709.19;1763957;79;21002;-62
2021/04/21 14:00:20;;;;;;;5.95;5.42;;;;;;;11.64;64.94;99714.91;1783278;79;21236;-62
2021/04/21 14:02:49;;;;;;;9.23;5.83;;;;;;;11.72;64.77;99705.28;1757151;79;21180;-60
2021/04/21 14:05:17;;;;;;;6.35;5.70;;;;;;;11.83;64.20;99702.00;1789745;79;21518;-60
2021/04/21 14:07:46;;;;;;;32.55;8.70;;;;;;;11.92;64.57;99703.54;1782798;79;21561;-62
2021/04/21 14:10:16;;;;;;;6.42;5.83;;;;;;;12.00;64.39;99701.22;1801572;79;20952;-58
2021/04/21 14:12:44;;;;;;;6.15;5.55;;;;;;;12.07;63.01;99692.98;1801681;79;21561;-62
2021/04/21 14:15:14;;;;;;;5.80;5.30;;;;;;;12.06;62.70;99697.84;1801613;79;21229;-63
2021/04/21 14:17:43;;;;;;;6.22;5.62;;;;;;;12.02;62.68;99694.59;1801589;79;21019;-64
2021/04/21 14:20:13;;;;;;;7.53;5.90;;;;;;;12.01;61.82;99695.53;1800771;79;21644;-63
2021/04/21 14:22:45;;;;;;;6.17;5.67;;;;;;;11.96;61.42;99691.96;1795209;79;21033;-60
2021/04/21 14:25:16;;;;;;;5.87;5.35;;;;;;;11.93;61.40;99696.55;1835969;78;21535;-66
2021/04/21 14:27:47;;;;;;;6.42;5.87;;;;;;;11.90;61.56;99691.53;1766008;81;21198;-65
2021/04/21 14:30:17;;;;;;;6.95;6.28;;;;;;;11.82;62.22;99690.73;1799653;79;20961;-66
